Brentwood, New York
Current Conditions -  °F | °C
As of 10:56 PM on Saturday 25 Oct 2014 (Local Time) from KISP Reporting Station
Few Clouds Few Clouds  
Wind Chill: 16°   Ceiling: Unl
Heat Index: 16°   Visibility: 10mi
Dew Point:   Wind: 10mph
Humidity: 64%   Direction: 230°SW
Pressure: 29.58"   Gusts: 21mph
Location:  40.78°N, 73.25°W
Report Text: KISP 260256Z 23009G18KT 10SM FEW260 16/09 A2958 RMK AO2 SLP015 T01560089 58016
Loading
Personal Weather Stations






























Interactive Weather Map
Tropical Storm Tracking
New forecast layout! Learn more

10-Day Weather Forecast

Advertisements
Track Severe Weather on mobile